sensor_id;sensor_type;location;lat;lon;timestamp;temperature;humidity
75819;DHT22;64453;51.944;9.796;2023-06-22T00:01:18;23.30;61.40
75819;DHT22;64453;51.944;9.796;2023-06-22T00:03:45;22.80;61.50
75819;DHT22;64453;51.944;9.796;2023-06-22T00:06:12;22.90;62.30
75819;DHT22;64453;51.944;9.796;2023-06-22T00:08:40;23.30;61.40
75819;DHT22;64453;51.944;9.796;2023-06-22T00:11:07;23.30;60.80
75819;DHT22;64453;51.944;9.796;2023-06-22T00:13:34;23.60;60.70
75819;DHT22;64453;51.944;9.796;2023-06-22T00:16:02;23.40;59.60
75819;DHT22;64453;51.944;9.796;2023-06-22T00:18:30;23.40;60.20
75819;DHT22;64453;51.944;9.796;2023-06-22T00:20:57;23.50;60.70
75819;DHT22;64453;51.944;9.796;2023-06-22T00:23:25;23.00;60.00
75819;DHT22;64453;51.944;9.796;2023-06-22T00:25:52;22.90;61.60
75819;DHT22;64453;51.944;9.796;2023-06-22T00:28:19;23.00;61.80
75819;DHT22;64453;51.944;9.796;2023-06-22T00:30:47;23.00;61.70
75819;DHT22;64453;51.944;9.796;2023-06-22T00:33:16;23.10;61.40
75819;DHT22;64453;51.944;9.796;2023-06-22T00:35:43;23.50;60.60
75819;DHT22;64453;51.944;9.796;2023-06-22T00:38:10;23.50;59.80
75819;DHT22;64453;51.944;9.796;2023-06-22T00:40:37;23.10;60.20
75819;DHT22;64453;51.944;9.796;2023-06-22T00:43:05;22.80;60.00
75819;DHT22;64453;51.944;9.796;2023-06-22T00:45:33;23.00;60.30
75819;DHT22;64453;51.944;9.796;2023-06-22T00:48:00;22.90;59.60
75819;DHT22;64453;51.944;9.796;2023-06-22T00:50:31;22.80;59.80
75819;DHT22;64453;51.944;9.796;2023-06-22T00:53:00;22.60;60.40
75819;DHT22;64453;51.944;9.796;2023-06-22T00:55:30;22.70;60.20
75819;DHT22;64453;51.944;9.796;2023-06-22T00:57:57;22.20;61.00
75819;DHT22;64453;51.944;9.796;2023-06-22T01:00:24;22.30;61.90
75819;DHT22;64453;51.944;9.796;2023-06-22T01:02:52;22.60;60.80
75819;DHT22;64453;51.944;9.796;2023-06-22T01:05:20;23.00;60.00
75819;DHT22;64453;51.944;9.796;2023-06-22T01:08:00;23.10;59.70
75819;DHT22;64453;51.944;9.796;2023-06-22T01:10:38;22.80;59.20
75819;DHT22;64453;51.944;9.796;2023-06-22T01:13:12;22.40;60.50
75819;DHT22;64453;51.944;9.796;2023-06-22T01:15:45;22.40;60.90
75819;DHT22;64453;51.944;9.796;2023-06-22T01:18:17;22.60;60.50
75819;DHT22;64453;51.944;9.796;2023-06-22T01:20:46;22.80;60.60
75819;DHT22;64453;51.944;9.796;2023-06-22T01:23:24;23.10;60.50
75819;DHT22;64453;51.944;9.796;2023-06-22T01:26:02;23.00;59.80
75819;DHT22;64453;51.944;9.796;2023-06-22T01:28:42;22.40;60.50
75819;DHT22;64453;51.944;9.796;2023-06-22T01:31:11;22.20;62.10
75819;DHT22;64453;51.944;9.796;2023-06-22T01:33:43;22.30;61.20
75819;DHT22;64453;51.944;9.796;2023-06-22T01:36:12;22.10;62.70
75819;DHT22;64453;51.944;9.796;2023-06-22T01:38:40;22.40;62.70
75819;DHT22;64453;51.944;9.796;2023-06-22T01:41:07;22.80;62.00
75819;DHT22;64453;51.944;9.796;2023-06-22T01:43:34;23.00;61.30
75819;DHT22;64453;51.944;9.796;2023-06-22T01:46:03;23.20;61.10
75819;DHT22;64453;51.944;9.796;2023-06-22T01:48:30;23.30;60.60
75819;DHT22;64453;51.944;9.796;2023-06-22T01:50:58;23.40;60.60
75819;DHT22;64453;51.944;9.796;2023-06-22T01:53:25;23.10;60.80
75819;DHT22;64453;51.944;9.796;2023-06-22T01:55:52;23.10;60.50
75819;DHT22;64453;51.944;9.796;2023-06-22T01:58:21;22.90;60.30
75819;DHT22;64453;51.944;9.796;2023-06-22T02:00:56;22.70;60.80
75819;DHT22;64453;51.944;9.796;2023-06-22T02:03:31;22.60;61.50
75819;DHT22;64453;51.944;9.796;2023-06-22T02:06:05;22.90;61.10
75819;DHT22;64453;51.944;9.796;2023-06-22T02:08:38;22.70;60.90
75819;DHT22;64453;51.944;9.796;2023-06-22T02:11:08;22.40;61.90
75819;DHT22;64453;51.944;9.796;2023-06-22T02:13:36;22.40;62.00
75819;DHT22;64453;51.944;9.796;2023-06-22T02:16:09;22.70;61.80
75819;DHT22;64453;51.944;9.796;2023-06-22T02:18:37;22.30;61.70
75819;DHT22;64453;51.944;9.796;2023-06-22T02:21:05;22.30;61.80
75819;DHT22;64453;51.944;9.796;2023-06-22T02:23:33;22.30;62.40
75819;DHT22;64453;51.944;9.796;2023-06-22T02:26:01;22.30;62.70
75819;DHT22;64453;51.944;9.796;2023-06-22T02:28:28;22.40;63.00
75819;DHT22;64453;51.944;9.796;2023-06-22T02:30:55;22.60;62.10
75819;DHT22;64453;51.944;9.796;2023-06-22T02:33:23;22.60;62.30
75819;DHT22;64453;51.944;9.796;2023-06-22T02:35:50;22.20;62.70
75819;DHT22;64453;51.944;9.796;2023-06-22T02:38:17;22.30;63.40
75819;DHT22;64453;51.944;9.796;2023-06-22T02:40:45;22.40;63.10
75819;DHT22;64453;51.944;9.796;2023-06-22T02:43:11;22.70;62.50
75819;DHT22;64453;51.944;9.796;2023-06-22T02:45:38;23.00;62.10
75819;DHT22;64453;51.944;9.796;2023-06-22T02:48:06;22.90;61.80
75819;DHT22;64453;51.944;9.796;2023-06-22T02:50:34;22.60;62.10
75819;DHT22;64453;51.944;9.796;2023-06-22T02:53:01;22.60;63.00
75819;DHT22;64453;51.944;9.796;2023-06-22T02:55:28;22.70;63.20
75819;DHT22;64453;51.944;9.796;2023-06-22T02:57:55;22.90;62.50
75819;DHT22;64453;51.944;9.796;2023-06-22T03:00:23;23.10;62.10
75819;DHT22;64453;51.944;9.796;2023-06-22T03:02:56;23.10;61.80
75819;DHT22;64453;51.944;9.796;2023-06-22T03:05:23;23.10;61.90
75819;DHT22;64453;51.944;9.796;2023-06-22T03:07:52;23.30;61.70
75819;DHT22;64453;51.944;9.796;2023-06-22T03:10:20;23.00;61.80
75819;DHT22;64453;51.944;9.796;2023-06-22T03:12:47;22.90;62.10
75819;DHT22;64453;51.944;9.796;2023-06-22T03:15:13;22.80;62.10
75819;DHT22;64453;51.944;9.796;2023-06-22T03:17:40;22.60;62.90
75819;DHT22;64453;51.944;9.796;2023-06-22T03:20:09;22.70;63.20
75819;DHT22;64453;51.944;9.796;2023-06-22T03:22:37;22.70;63.30
75819;DHT22;64453;51.944;9.796;2023-06-22T03:25:06;22.40;63.60
75819;DHT22;64453;51.944;9.796;2023-06-22T03:27:38;22.30;64.20
75819;DHT22;64453;51.944;9.796;2023-06-22T03:30:07;22.40;64.60
75819;DHT22;64453;51.944;9.796;2023-06-22T03:32:35;22.30;65.30
75819;DHT22;64453;51.944;9.796;2023-06-22T03:35:02;22.30;65.30
75819;DHT22;64453;51.944;9.796;2023-06-22T03:37:29;22.50;65.30
75819;DHT22;64453;51.944;9.796;2023-06-22T03:39:56;22.30;65.80
75819;DHT22;64453;51.944;9.796;2023-06-22T03:42:24;22.20;66.10
75819;DHT22;64453;51.944;9.796;2023-06-22T03:44:51;22.40;66.00
75819;DHT22;64453;51.944;9.796;2023-06-22T03:47:18;22.60;65.50
75819;DHT22;64453;51.944;9.796;2023-06-22T03:49:44;22.60;65.30
75819;DHT22;64453;51.944;9.796;2023-06-22T03:52:11;22.60;65.80
75819;DHT22;64453;51.944;9.796;2023-06-22T03:54:38;22.80;65.60
75819;DHT22;64453;51.944;9.796;2023-06-22T03:57:05;22.80;66.10
75819;DHT22;64453;51.944;9.796;2023-06-22T03:59:33;23.10;65.00
75819;DHT22;64453;51.944;9.796;2023-06-22T04:02:00;23.20;64.80
75819;DHT22;64453;51.944;9.796;2023-06-22T04:04:27;23.30;64.40
75819;DHT22;64453;51.944;9.796;2023-06-22T04:06:54;23.40;64.20
75819;DHT22;64453;51.944;9.796;2023-06-22T04:09:21;23.40;63.90
75819;DHT22;64453;51.944;9.796;2023-06-22T04:11:48;23.50;64.00
75819;DHT22;64453;51.944;9.796;2023-06-22T04:14:15;23.40;64.20
75819;DHT22;64453;51.944;9.796;2023-06-22T04:16:43;23.20;64.80
75819;DHT22;64453;51.944;9.796;2023-06-22T04:19:10;23.40;64.10
75819;DHT22;64453;51.944;9.796;2023-06-22T04:21:41;23.50;63.80
75819;DHT22;64453;51.944;9.796;2023-06-22T04:24:08;23.50;63.60
75819;DHT22;64453;51.944;9.796;2023-06-22T04:26:35;23.20;63.30
75819;DHT22;64453;51.944;9.796;2023-06-22T04:29:03;23.20;64.20
75819;DHT22;64453;51.944;9.796;2023-06-22T04:31:31;23.20;64.40
75819;DHT22;64453;51.944;9.796;2023-06-22T04:34:04;23.10;64.70
75819;DHT22;64453;51.944;9.796;2023-06-22T04:36:34;23.40;65.10
75819;DHT22;64453;51.944;9.796;2023-06-22T04:39:05;23.50;65.00
75819;DHT22;64453;51.944;9.796;2023-06-22T04:41:35;23.60;64.20
75819;DHT22;64453;51.944;9.796;2023-06-22T04:44:09;23.60;63.50
75819;DHT22;64453;51.944;9.796;2023-06-22T04:46:36;23.10;64.90
75819;DHT22;64453;51.944;9.796;2023-06-22T04:49:06;23.10;65.60
75819;DHT22;64453;51.944;9.796;2023-06-22T04:51:37;23.30;65.80
75819;DHT22;64453;51.944;9.796;2023-06-22T04:54:05;23.20;66.00
75819;DHT22;64453;51.944;9.796;2023-06-22T04:56:32;23.20;66.20
75819;DHT22;64453;51.944;9.796;2023-06-22T04:58:59;23.40;66.00
75819;DHT22;64453;51.944;9.796;2023-06-22T05:01:27;23.50;65.90
75819;DHT22;64453;51.944;9.796;2023-06-22T05:03:53;23.50;65.40
75819;DHT22;64453;51.944;9.796;2023-06-22T05:06:24;23.50;66.00
75819;DHT22;64453;51.944;9.796;2023-06-22T05:08:52;23.60;65.60
75819;DHT22;64453;51.944;9.796;2023-06-22T05:11:23;23.40;64.60
75819;DHT22;64453;51.944;9.796;2023-06-22T05:13:50;23.50;65.80
75819;DHT22;64453;51.944;9.796;2023-06-22T05:16:17;23.50;66.20
75819;DHT22;64453;51.944;9.796;2023-06-22T05:18:51;23.40;67.30
75819;DHT22;64453;51.944;9.796;2023-06-22T05:21:23;23.40;66.70
75819;DHT22;64453;51.944;9.796;2023-06-22T05:23:51;23.40;67.40
75819;DHT22;64453;51.944;9.796;2023-06-22T05:26:18;23.20;67.80
75819;DHT22;64453;51.944;9.796;2023-06-22T05:28:46;23.20;68.60
75819;DHT22;64453;51.944;9.796;2023-06-22T05:31:14;23.30;69.60
75819;DHT22;64453;51.944;9.796;2023-06-22T05:33:42;23.40;68.80
75819;DHT22;64453;51.944;9.796;2023-06-22T05:36:10;23.50;68.50
75819;DHT22;64453;51.944;9.796;2023-06-22T05:38:40;23.60;68.80
75819;DHT22;64453;51.944;9.796;2023-06-22T05:41:07;23.50;68.70
75819;DHT22;64453;51.944;9.796;2023-06-22T05:43:34;23.50;68.00
75819;DHT22;64453;51.944;9.796;2023-06-22T05:46:02;23.60;68.40
75819;DHT22;64453;51.944;9.796;2023-06-22T05:48:30;23.60;69.20
75819;DHT22;64453;51.944;9.796;2023-06-22T05:50:57;23.70;69.20
75819;DHT22;64453;51.944;9.796;2023-06-22T05:53:24;23.30;68.40
75819;DHT22;64453;51.944;9.796;2023-06-22T05:55:52;23.10;69.80
75819;DHT22;64453;51.944;9.796;2023-06-22T05:58:18;23.30;69.70
75819;DHT22;64453;51.944;9.796;2023-06-22T06:00:45;23.40;68.40
75819;DHT22;64453;51.944;9.796;2023-06-22T06:03:13;23.30;70.00
75819;DHT22;64453;51.944;9.796;2023-06-22T06:05:42;23.40;70.50
75819;DHT22;64453;51.944;9.796;2023-06-22T06:08:10;23.20;70.00
75819;DHT22;64453;51.944;9.796;2023-06-22T06:10:38;23.30;70.70
75819;DHT22;64453;51.944;9.796;2023-06-22T06:13:06;23.40;70.70
75819;DHT22;64453;51.944;9.796;2023-06-22T06:15:34;23.50;72.30
75819;DHT22;64453;51.944;9.796;2023-06-22T06:18:01;23.60;71.50
75819;DHT22;64453;51.944;9.796;2023-06-22T06:20:30;23.70;71.10
75819;DHT22;64453;51.944;9.796;2023-06-22T06:22:58;23.80;71.10
75819;DHT22;64453;51.944;9.796;2023-06-22T06:25:24;23.80;71.00
75819;DHT22;64453;51.944;9.796;2023-06-22T06:27:52;23.90;71.00
75819;DHT22;64453;51.944;9.796;2023-06-22T06:30:21;24.00;71.20
75819;DHT22;64453;51.944;9.796;2023-06-22T06:32:49;24.00;70.80
75819;DHT22;64453;51.944;9.796;2023-06-22T06:35:17;24.00;71.00
75819;DHT22;64453;51.944;9.796;2023-06-22T06:37:45;24.10;71.20
75819;DHT22;64453;51.944;9.796;2023-06-22T06:40:13;24.10;72.40
75819;DHT22;64453;51.944;9.796;2023-06-22T06:42:41;24.10;72.20
75819;DHT22;64453;51.944;9.796;2023-06-22T06:45:11;24.10;72.60
75819;DHT22;64453;51.944;9.796;2023-06-22T06:47:39;24.10;73.00
75819;DHT22;64453;51.944;9.796;2023-06-22T06:50:07;24.10;72.80
75819;DHT22;64453;51.944;9.796;2023-06-22T06:52:35;24.10;73.10
75819;DHT22;64453;51.944;9.796;2023-06-22T06:55:03;24.20;72.40
75819;DHT22;64453;51.944;9.796;2023-06-22T06:57:33;24.20;71.80
75819;DHT22;64453;51.944;9.796;2023-06-22T07:00:00;24.20;71.50
75819;DHT22;64453;51.944;9.796;2023-06-22T07:02:33;24.20;72.50
75819;DHT22;64453;51.944;9.796;2023-06-22T07:05:01;24.10;73.00
75819;DHT22;64453;51.944;9.796;2023-06-22T07:07:29;23.90;73.10
75819;DHT22;64453;51.944;9.796;2023-06-22T07:09:56;24.00;73.10
75819;DHT22;64453;51.944;9.796;2023-06-22T07:12:23;24.10;73.70
75819;DHT22;64453;51.944;9.796;2023-06-22T07:14:51;24.30;74.10
75819;DHT22;64453;51.944;9.796;2023-06-22T07:17:18;24.30;75.00
75819;DHT22;64453;51.944;9.796;2023-06-22T07:19:45;24.30;73.70
75819;DHT22;64453;51.944;9.796;2023-06-22T07:22:13;24.30;74.10
75819;DHT22;64453;51.944;9.796;2023-06-22T07:24:41;24.40;75.50
75819;DHT22;64453;51.944;9.796;2023-06-22T07:27:07;24.40;75.80
75819;DHT22;64453;51.944;9.796;2023-06-22T07:29:36;24.40;75.10
75819;DHT22;64453;51.944;9.796;2023-06-22T07:32:05;24.50;75.50
75819;DHT22;64453;51.944;9.796;2023-06-22T07:34:33;24.50;75.50
75819;DHT22;64453;51.944;9.796;2023-06-22T07:37:00;24.50;75.90
75819;DHT22;64453;51.944;9.796;2023-06-22T07:39:28;24.60;75.00
75819;DHT22;64453;51.944;9.796;2023-06-22T07:41:55;24.60;74.80
75819;DHT22;64453;51.944;9.796;2023-06-22T07:44:22;24.60;75.30
75819;DHT22;64453;51.944;9.796;2023-06-22T07:46:49;24.60;75.30
75819;DHT22;64453;51.944;9.796;2023-06-22T07:49:16;24.60;75.40
75819;DHT22;64453;51.944;9.796;2023-06-22T07:51:43;24.60;75.30
75819;DHT22;64453;51.944;9.796;2023-06-22T07:54:10;24.70;75.30
75819;DHT22;64453;51.944;9.796;2023-06-22T07:56:38;24.60;75.70
75819;DHT22;64453;51.944;9.796;2023-06-22T07:59:05;24.70;75.70
75819;DHT22;64453;51.944;9.796;2023-06-22T08:01:32;24.70;76.30
75819;DHT22;64453;51.944;9.796;2023-06-22T08:03:59;24.80;76.00
75819;DHT22;64453;51.944;9.796;2023-06-22T08:06:26;24.80;75.60
75819;DHT22;64453;51.944;9.796;2023-06-22T08:08:52;24.90;74.10
75819;DHT22;64453;51.944;9.796;2023-06-22T08:11:22;24.90;74.00
75819;DHT22;64453;51.944;9.796;2023-06-22T08:13:52;24.90;74.40
75819;DHT22;64453;51.944;9.796;2023-06-22T08:16:21;25.00;74.70
75819;DHT22;64453;51.944;9.796;2023-06-22T08:18:47;25.00;76.00
75819;DHT22;64453;51.944;9.796;2023-06-22T08:21:14;24.90;72.60
75819;DHT22;64453;51.944;9.796;2023-06-22T08:23:41;24.70;73.10
75819;DHT22;64453;51.944;9.796;2023-06-22T08:26:08;24.70;73.10
75819;DHT22;64453;51.944;9.796;2023-06-22T08:28:35;24.70;73.70
75819;DHT22;64453;51.944;9.796;2023-06-22T08:31:03;24.80;73.30
75819;DHT22;64453;51.944;9.796;2023-06-22T08:33:30;24.80;73.50
75819;DHT22;64453;51.944;9.796;2023-06-22T08:35:58;24.70;72.60
75819;DHT22;64453;51.944;9.796;2023-06-22T08:38:25;24.70;74.90
75819;DHT22;64453;51.944;9.796;2023-06-22T08:40:52;24.80;74.40
75819;DHT22;64453;51.944;9.796;2023-06-22T08:43:19;24.90;73.60
75819;DHT22;64453;51.944;9.796;2023-06-22T08:45:46;24.90;72.50
75819;DHT22;64453;51.944;9.796;2023-06-22T08:48:14;24.90;72.40
75819;DHT22;64453;51.944;9.796;2023-06-22T08:50:41;25.00;73.30
75819;DHT22;64453;51.944;9.796;2023-06-22T08:53:08;24.90;71.60
75819;DHT22;64453;51.944;9.796;2023-06-22T08:55:35;24.90;72.20
75819;DHT22;64453;51.944;9.796;2023-06-22T08:58:01;24.90;72.00
75819;DHT22;64453;51.944;9.796;2023-06-22T09:00:29;24.80;72.20
75819;DHT22;64453;51.944;9.796;2023-06-22T09:03:00;25.10;73.50
75819;DHT22;64453;51.944;9.796;2023-06-22T09:05:29;25.00;70.20
75819;DHT22;64453;51.944;9.796;2023-06-22T09:07:56;24.80;70.80
75819;DHT22;64453;51.944;9.796;2023-06-22T09:10:24;24.80;69.80
75819;DHT22;64453;51.944;9.796;2023-06-22T09:12:51;25.00;70.60
75819;DHT22;64453;51.944;9.796;2023-06-22T09:15:18;24.70;69.40
75819;DHT22;64453;51.944;9.796;2023-06-22T09:17:44;24.60;71.00
75819;DHT22;64453;51.944;9.796;2023-06-22T09:20:12;24.90;70.40
75819;DHT22;64453;51.944;9.796;2023-06-22T09:22:40;24.80;70.80
75819;DHT22;64453;51.944;9.796;2023-06-22T09:25:08;24.80;70.20
75819;DHT22;64453;51.944;9.796;2023-06-22T09:27:35;24.80;69.90
75819;DHT22;64453;51.944;9.796;2023-06-22T09:30:02;24.80;71.20
75819;DHT22;64453;51.944;9.796;2023-06-22T09:32:30;25.10;70.60
75819;DHT22;64453;51.944;9.796;2023-06-22T09:34:57;25.30;70.30
75819;DHT22;64453;51.944;9.796;2023-06-22T09:37:24;25.50;70.50
75819;DHT22;64453;51.944;9.796;2023-06-22T09:39:52;25.60;69.50
75819;DHT22;64453;51.944;9.796;2023-06-22T09:42:18;25.60;69.50
75819;DHT22;64453;51.944;9.796;2023-06-22T09:44:46;25.70;67.30
75819;DHT22;64453;51.944;9.796;2023-06-22T09:47:13;25.80;68.80
75819;DHT22;64453;51.944;9.796;2023-06-22T09:49:40;25.90;68.30
75819;DHT22;64453;51.944;9.796;2023-06-22T09:52:07;25.90;68.30
75819;DHT22;64453;51.944;9.796;2023-06-22T09:54:34;25.90;69.90
75819;DHT22;64453;51.944;9.796;2023-06-22T09:57:02;26.00;70.70
75819;DHT22;64453;51.944;9.796;2023-06-22T09:59:30;26.00;72.00
75819;DHT22;64453;51.944;9.796;2023-06-22T10:01:57;26.00;70.40
75819;DHT22;64453;51.944;9.796;2023-06-22T10:04:23;26.00;67.30
75819;DHT22;64453;51.944;9.796;2023-06-22T10:06:51;26.10;69.00
75819;DHT22;64453;51.944;9.796;2023-06-22T10:09:18;26.20;66.90
75819;DHT22;64453;51.944;9.796;2023-06-22T10:11:45;26.20;66.00
75819;DHT22;64453;51.944;9.796;2023-06-22T10:14:13;26.30;67.50
75819;DHT22;64453;51.944;9.796;2023-06-22T10:16:40;26.30;68.40
75819;DHT22;64453;51.944;9.796;2023-06-22T10:19:07;26.20;68.00
75819;DHT22;64453;51.944;9.796;2023-06-22T10:21:34;26.30;69.00
75819;DHT22;64453;51.944;9.796;2023-06-22T10:24:01;26.30;68.80
75819;DHT22;64453;51.944;9.796;2023-06-22T10:26:31;26.40;68.00
75819;DHT22;64453;51.944;9.796;2023-06-22T10:28:58;26.30;67.30
75819;DHT22;64453;51.944;9.796;2023-06-22T10:31:27;26.40;67.60
75819;DHT22;64453;51.944;9.796;2023-06-22T10:33:54;26.40;67.10
75819;DHT22;64453;51.944;9.796;2023-06-22T10:36:22;26.30;66.80
75819;DHT22;64453;51.944;9.796;2023-06-22T10:38:49;26.40;69.60
75819;DHT22;64453;51.944;9.796;2023-06-22T10:41:16;26.40;67.30
75819;DHT22;64453;51.944;9.796;2023-06-22T10:43:43;26.30;68.10
75819;DHT22;64453;51.944;9.796;2023-06-22T10:46:10;26.30;65.70
75819;DHT22;64453;51.944;9.796;2023-06-22T10:48:38;26.40;67.00
75819;DHT22;64453;51.944;9.796;2023-06-22T10:51:05;25.90;65.70
75819;DHT22;64453;51.944;9.796;2023-06-22T10:53:32;26.20;68.10
75819;DHT22;64453;51.944;9.796;2023-06-22T10:55:58;26.10;69.70
75819;DHT22;64453;51.944;9.796;2023-06-22T10:58:25;26.40;68.40
75819;DHT22;64453;51.944;9.796;2023-06-22T11:00:52;26.30;66.00
75819;DHT22;64453;51.944;9.796;2023-06-22T11:03:19;26.10;66.80
75819;DHT22;64453;51.944;9.796;2023-06-22T11:05:47;26.50;67.70
75819;DHT22;64453;51.944;9.796;2023-06-22T11:08:14;26.70;67.60
75819;DHT22;64453;51.944;9.796;2023-06-22T11:10:41;26.60;64.40
75819;DHT22;64453;51.944;9.796;2023-06-22T11:13:08;26.60;66.00
75819;DHT22;64453;51.944;9.796;2023-06-22T11:15:35;26.60;65.90
75819;DHT22;64453;51.944;9.796;2023-06-22T11:18:02;26.80;65.30
75819;DHT22;64453;51.944;9.796;2023-06-22T11:20:30;26.80;63.70
75819;DHT22;64453;51.944;9.796;2023-06-22T11:23:01;26.80;65.80
75819;DHT22;64453;51.944;9.796;2023-06-22T11:25:28;26.60;65.00
75819;DHT22;64453;51.944;9.796;2023-06-22T11:27:55;26.80;66.70
75819;DHT22;64453;51.944;9.796;2023-06-22T11:30:22;27.00;65.50
75819;DHT22;64453;51.944;9.796;2023-06-22T11:32:49;27.10;65.10
75819;DHT22;64453;51.944;9.796;2023-06-22T11:35:16;27.20;64.70
75819;DHT22;64453;51.944;9.796;2023-06-22T11:37:42;27.30;63.70
75819;DHT22;64453;51.944;9.796;2023-06-22T11:40:12;27.40;63.90
75819;DHT22;64453;51.944;9.796;2023-06-22T11:42:39;27.20;59.40
75819;DHT22;64453;51.944;9.796;2023-06-22T11:45:07;27.30;60.70
75819;DHT22;64453;51.944;9.796;2023-06-22T11:47:34;27.50;61.30
75819;DHT22;64453;51.944;9.796;2023-06-22T11:50:02;27.50;62.10
75819;DHT22;64453;51.944;9.796;2023-06-22T11:52:29;27.50;60.30
75819;DHT22;64453;51.944;9.796;2023-06-22T11:54:56;27.50;61.00
75819;DHT22;64453;51.944;9.796;2023-06-22T11:57:26;27.50;59.50
75819;DHT22;64453;51.944;9.796;2023-06-22T11:59:52;27.60;59.30
75819;DHT22;64453;51.944;9.796;2023-06-22T12:02:19;27.60;59.60
75819;DHT22;64453;51.944;9.796;2023-06-22T12:04:46;27.60;59.30
75819;DHT22;64453;51.944;9.796;2023-06-22T12:07:13;27.50;58.20
75819;DHT22;64453;51.944;9.796;2023-06-22T12:09:40;27.50;59.00
75819;DHT22;64453;51.944;9.796;2023-06-22T12:12:08;27.60;59.30
75819;DHT22;64453;51.944;9.796;2023-06-22T12:14:36;27.70;59.00
75819;DHT22;64453;51.944;9.796;2023-06-22T12:17:03;27.70;58.90
75819;DHT22;64453;51.944;9.796;2023-06-22T12:19:30;27.80;59.20
75819;DHT22;64453;51.944;9.796;2023-06-22T12:21:57;27.90;59.60
75819;DHT22;64453;51.944;9.796;2023-06-22T12:24:24;28.00;59.60
75819;DHT22;64453;51.944;9.796;2023-06-22T12:26:51;28.00;60.20
75819;DHT22;64453;51.944;9.796;2023-06-22T12:29:18;28.00;59.50
75819;DHT22;64453;51.944;9.796;2023-06-22T12:31:46;28.10;60.40
75819;DHT22;64453;51.944;9.796;2023-06-22T12:34:13;28.10;60.10
75819;DHT22;64453;51.944;9.796;2023-06-22T12:36:39;28.10;59.20
75819;DHT22;64453;51.944;9.796;2023-06-22T12:39:07;28.10;58.50
75819;DHT22;64453;51.944;9.796;2023-06-22T12:41:33;28.10;58.30
75819;DHT22;64453;51.944;9.796;2023-06-22T12:44:00;28.10;58.90
75819;DHT22;64453;51.944;9.796;2023-06-22T12:46:27;28.10;58.70
75819;DHT22;64453;51.944;9.796;2023-06-22T12:48:57;28.20;59.50
75819;DHT22;64453;51.944;9.796;2023-06-22T12:51:25;28.10;59.60
75819;DHT22;64453;51.944;9.796;2023-06-22T12:53:52;28.10;59.00
75819;DHT22;64453;51.944;9.796;2023-06-22T12:56:19;28.20;59.80
75819;DHT22;64453;51.944;9.796;2023-06-22T12:58:46;28.10;59.40
75819;DHT22;64453;51.944;9.796;2023-06-22T13:01:12;28.10;59.30
75819;DHT22;64453;51.944;9.796;2023-06-22T13:03:40;28.10;58.90
75819;DHT22;64453;51.944;9.796;2023-06-22T13:06:09;28.10;58.50
75819;DHT22;64453;51.944;9.796;2023-06-22T13:08:36;28.10;58.10
75819;DHT22;64453;51.944;9.796;2023-06-22T13:11:03;28.10;58.10
75819;DHT22;64453;51.944;9.796;2023-06-22T13:13:29;28.10;60.00
75819;DHT22;64453;51.944;9.796;2023-06-22T13:15:56;28.10;59.20
75819;DHT22;64453;51.944;9.796;2023-06-22T13:18:23;28.10;58.90
75819;DHT22;64453;51.944;9.796;2023-06-22T13:20:50;28.10;59.40
75819;DHT22;64453;51.944;9.796;2023-06-22T13:23:21;27.90;57.70
75819;DHT22;64453;51.944;9.796;2023-06-22T13:25:48;28.00;58.50
75819;DHT22;64453;51.944;9.796;2023-06-22T13:28:15;28.10;58.50
75819;DHT22;64453;51.944;9.796;2023-06-22T13:30:42;28.00;58.70
75819;DHT22;64453;51.944;9.796;2023-06-22T13:33:11;28.00;58.90
75819;DHT22;64453;51.944;9.796;2023-06-22T13:35:38;28.10;60.20
75819;DHT22;64453;51.944;9.796;2023-06-22T13:38:07;28.10;60.70
75819;DHT22;64453;51.944;9.796;2023-06-22T13:40:36;28.10;59.70
75819;DHT22;64453;51.944;9.796;2023-06-22T13:43:03;28.10;59.10
75819;DHT22;64453;51.944;9.796;2023-06-22T13:45:30;28.10;60.40
75819;DHT22;64453;51.944;9.796;2023-06-22T13:47:57;28.00;61.40
75819;DHT22;64453;51.944;9.796;2023-06-22T13:50:24;27.80;59.60
75819;DHT22;64453;51.944;9.796;2023-06-22T13:52:50;27.90;60.80
75819;DHT22;64453;51.944;9.796;2023-06-22T13:55:17;28.00;62.80
75819;DHT22;64453;51.944;9.796;2023-06-22T13:57:48;28.00;60.60
75819;DHT22;64453;51.944;9.796;2023-06-22T14:00:15;28.00;60.70
75819;DHT22;64453;51.944;9.796;2023-06-22T14:02:42;28.20;61.20
75819;DHT22;64453;51.944;9.796;2023-06-22T14:05:09;28.20;61.10
75819;DHT22;64453;51.944;9.796;2023-06-22T14:07:36;28.20;61.30
75819;DHT22;64453;51.944;9.796;2023-06-22T14:10:05;28.20;64.20
75819;DHT22;64453;51.944;9.796;2023-06-22T14:12:35;28.30;60.30
75819;DHT22;64453;51.944;9.796;2023-06-22T14:15:10;28.30;61.10
75819;DHT22;64453;51.944;9.796;2023-06-22T14:17:37;28.30;60.80
75819;DHT22;64453;51.944;9.796;2023-06-22T14:20:05;28.30;61.90
75819;DHT22;64453;51.944;9.796;2023-06-22T14:22:34;28.30;63.20
75819;DHT22;64453;51.944;9.796;2023-06-22T14:25:02;28.00;60.90
75819;DHT22;64453;51.944;9.796;2023-06-22T14:27:29;28.30;61.70
75819;DHT22;64453;51.944;9.796;2023-06-22T14:29:57;28.30;61.70
75819;DHT22;64453;51.944;9.796;2023-06-22T14:32:29;28.30;61.30
75819;DHT22;64453;51.944;9.796;2023-06-22T14:34:56;28.20;60.40
75819;DHT22;64453;51.944;9.796;2023-06-22T14:37:23;28.20;60.30
75819;DHT22;64453;51.944;9.796;2023-06-22T14:39:49;28.20;60.50
75819;DHT22;64453;51.944;9.796;2023-06-22T14:42:16;28.10;62.60
75819;DHT22;64453;51.944;9.796;2023-06-22T14:44:43;27.90;60.80
75819;DHT22;64453;51.944;9.796;2023-06-22T14:47:10;28.00;60.90
75819;DHT22;64453;51.944;9.796;2023-06-22T14:49:38;27.90;61.40
75819;DHT22;64453;51.944;9.796;2023-06-22T14:52:06;27.80;59.50
75819;DHT22;64453;51.944;9.796;2023-06-22T14:54:33;27.70;59.50
75819;DHT22;64453;51.944;9.796;2023-06-22T14:57:00;27.90;59.80
75819;DHT22;64453;51.944;9.796;2023-06-22T14:59:28;27.80;60.00
75819;DHT22;64453;51.944;9.796;2023-06-22T15:01:54;27.30;61.10
75819;DHT22;64453;51.944;9.796;2023-06-22T15:04:21;27.30;60.80
75819;DHT22;64453;51.944;9.796;2023-06-22T15:06:49;27.50;61.00
75819;DHT22;64453;51.944;9.796;2023-06-22T15:09:16;27.50;61.50
75819;DHT22;64453;51.944;9.796;2023-06-22T15:11:44;27.80;61.50
75819;DHT22;64453;51.944;9.796;2023-06-22T15:14:13;27.60;61.60
75819;DHT22;64453;51.944;9.796;2023-06-22T15:16:40;27.40;63.00
75819;DHT22;64453;51.944;9.796;2023-06-22T15:19:07;27.30;63.50
75819;DHT22;64453;51.944;9.796;2023-06-22T15:21:35;27.20;63.20
75819;DHT22;64453;51.944;9.796;2023-06-22T15:24:04;27.30;63.50
75819;DHT22;64453;51.944;9.796;2023-06-22T15:26:30;26.80;64.40
75819;DHT22;64453;51.944;9.796;2023-06-22T15:28:57;26.50;65.50
75819;DHT22;64453;51.944;9.796;2023-06-22T15:31:24;26.80;65.40
75819;DHT22;64453;51.944;9.796;2023-06-22T15:33:52;26.80;64.50